sensor_id;sensor_type;location;lat;lon;timestamp;pressure;altitude;pressure_sealevel;temperature;humidity
55263;BME280;41125;48.752;9.168;2023-05-10T00:00:18;96265.19;;;12.60;100.00
55263;BME280;41125;48.752;9.168;2023-05-10T00:00:51;96264.69;;;12.58;100.00
55263;BME280;41125;48.752;9.168;2023-05-10T00:01:25;96273.66;;;12.59;100.00
55263;BME280;41125;48.752;9.168;2023-05-10T00:01:56;96266.94;;;12.56;100.00
55263;BME280;41125;48.752;9.168;2023-05-10T00:02:28;96276.38;;;12.59;100.00
55263;BME280;41125;48.752;9.168;2023-05-10T00:03:00;96273.50;;;12.64;100.00
55263;BME280;41125;48.752;9.168;2023-05-10T00:03:31;96271.09;;;12.62;100.00
55263;BME280;41125;48.752;9.168;2023-05-10T00:04:02;96271.75;;;12.59;100.00
55263;BME280;41125;48.752;9.168;2023-05-10T00:04:34;96274.00;;;12.57;100.00
55263;BME280;41125;48.752;9.168;2023-05-10T00:05:06;96270.78;;;12.55;100.00
55263;BME280;41125;48.752;9.168;2023-05-10T00:05:39;96269.81;;;12.51;100.00
55263;BME280;41125;48.752;9.168;2023-05-10T00:06:11;96269.34;;;12.49;100.00
55263;BME280;41125;48.752;9.168;2023-05-10T00:06:43;96268.09;;;12.47;100.00
55263;BME280;41125;48.752;9.168;2023-05-10T00:07:14;96271.44;;;12.44;100.00
55263;BME280;41125;48.752;9.168;2023-05-10T00:07:48;96266.63;;;12.40;100.00
55263;BME280;41125;48.752;9.168;2023-05-10T00:08:19;96276.22;;;12.38;100.00
55263;BME280;41125;48.752;9.168;2023-05-10T00:08:52;96278.47;;;12.36;100.00
55263;BME280;41125;48.752;9.168;2023-05-10T00:09:23;96277.84;;;12.39;100.00
55263;BME280;41125;48.752;9.168;2023-05-10T00:09:56;96277.50;;;12.49;100.00
55263;BME280;41125;48.752;9.168;2023-05-10T00:10:27;96282.94;;;12.49;100.00
55263;BME280;41125;48.752;9.168;2023-05-10T00:10:59;96286.78;;;12.48;100.00
55263;BME280;41125;48.752;9.168;2023-05-10T00:11:30;96272.72;;;12.46;100.00
55263;BME280;41125;48.752;9.168;2023-05-10T00:12:01;96278.81;;;12.43;100.00
55263;BME280;41125;48.752;9.168;2023-05-10T00:12:32;96281.03;;;12.41;100.00
55263;BME280;41125;48.752;9.168;2023-05-10T00:13:04;96281.34;;;12.39;100.00
55263;BME280;41125;48.752;9.168;2023-05-10T00:13:35;96274.63;;;12.37;100.00
55263;BME280;41125;48.752;9.168;2023-05-10T00:14:06;96276.22;;;12.38;100.00
55263;BME280;41125;48.752;9.168;2023-05-10T00:14:37;96270.31;;;12.36;100.00
55263;BME280;41125;48.752;9.168;2023-05-10T00:15:10;96280.72;;;12.34;100.00
55263;BME280;41125;48.752;9.168;2023-05-10T00:15:41;96276.38;;;12.33;100.00
55263;BME280;41125;48.752;9.168;2023-05-10T00:16:13;96277.50;;;12.32;100.00
55263;BME280;41125;48.752;9.168;2023-05-10T00:16:44;96273.97;;;12.31;100.00
55263;BME280;41125;48.752;9.168;2023-05-10T00:17:16;96283.44;;;12.34;100.00
55263;BME280;41125;48.752;9.168;2023-05-10T00:17:47;96276.88;;;12.35;100.00
55263;BME280;41125;48.752;9.168;2023-05-10T00:18:19;96276.06;;;12.34;100.00
55263;BME280;41125;48.752;9.168;2023-05-10T00:18:50;96279.09;;;12.33;100.00
55263;BME280;41125;48.752;9.168;2023-05-10T00:19:21;96277.50;;;12.32;100.00
55263;BME280;41125;48.752;9.168;2023-05-10T00:19:52;96274.47;;;12.33;100.00
55263;BME280;41125;48.752;9.168;2023-05-10T00:20:27;96274.78;;;12.32;100.00
55263;BME280;41125;48.752;9.168;2023-05-10T00:20:58;96278.62;;;12.31;100.00
55263;BME280;41125;48.752;9.168;2023-05-10T00:21:29;96273.97;;;12.31;100.00
55263;BME280;41125;48.752;9.168;2023-05-10T00:22:01;96274.47;;;12.33;100.00
55263;BME280;41125;48.752;9.168;2023-05-10T00:22:33;96274.78;;;12.32;100.00
55263;BME280;41125;48.752;9.168;2023-05-10T00:23:04;96275.44;;;12.37;100.00
55263;BME280;41125;48.752;9.168;2023-05-10T00:23:36;96270.78;;;12.38;100.00
55263;BME280;41125;48.752;9.168;2023-05-10T00:24:08;96275.44;;;12.37;100.00
55263;BME280;41125;48.752;9.168;2023-05-10T00:24:39;96269.34;;;12.40;100.00
55263;BME280;41125;48.752;9.168;2023-05-10T00:25:10;96275.59;;;12.41;100.00
55263;BME280;41125;48.752;9.168;2023-05-10T00:25:45;96269.84;;;12.43;100.00
55263;BME280;41125;48.752;9.168;2023-05-10T00:26:20;96266.31;;;12.42;100.00
55263;BME280;41125;48.752;9.168;2023-05-10T00:26:52;96272.41;;;12.39;100.00
55263;BME280;41125;48.752;9.168;2023-05-10T00:27:23;96273.03;;;12.36;100.00
55263;BME280;41125;48.752;9.168;2023-05-10T00:27:54;96273.50;;;12.38;100.00
55263;BME280;41125;48.752;9.168;2023-05-10T00:28:28;96270.62;;;12.34;100.00
55263;BME280;41125;48.752;9.168;2023-05-10T00:29:00;96276.38;;;12.33;100.00
55263;BME280;41125;48.752;9.168;2023-05-10T00:29:31;96274.78;;;12.32;100.00
55263;BME280;41125;48.752;9.168;2023-05-10T00:30:07;96275.41;;;12.29;100.00
55263;BME280;41125;48.752;9.168;2023-05-10T00:30:38;96274.94;;;12.27;100.00
55263;BME280;41125;48.752;9.168;2023-05-10T00:31:10;96276.38;;;12.24;100.00
55263;BME280;41125;48.752;9.168;2023-05-10T00:31:41;96281.63;;;12.21;100.00
55263;BME280;41125;48.752;9.168;2023-05-10T00:32:12;96265.97;;;12.18;100.00
55263;BME280;41125;48.752;9.168;2023-05-10T00:32:44;96275.22;;;12.17;100.00
55263;BME280;41125;48.752;9.168;2023-05-10T00:33:16;96278.44;;;12.19;100.00
55263;BME280;41125;48.752;9.168;2023-05-10T00:33:47;96275.72;;;12.19;100.00
55263;BME280;41125;48.752;9.168;2023-05-10T00:34:18;96267.25;;;12.20;100.00
55263;BME280;41125;48.752;9.168;2023-05-10T00:34:49;96272.22;;;12.27;100.00
55263;BME280;41125;48.752;9.168;2023-05-10T00:35:21;96275.91;;;12.31;100.00
55263;BME280;41125;48.752;9.168;2023-05-10T00:35:53;96274.47;;;12.33;100.00
55263;BME280;41125;48.752;9.168;2023-05-10T00:36:24;96272.38;;;12.30;100.00
55263;BME280;41125;48.752;9.168;2023-05-10T00:36:55;96267.88;;;12.26;100.00
55263;BME280;41125;48.752;9.168;2023-05-10T00:37:27;96272.38;;;12.22;100.00
55263;BME280;41125;48.752;9.168;2023-05-10T00:38:02;96267.56;;;12.19;100.00
55263;BME280;41125;48.752;9.168;2023-05-10T00:38:34;96270.41;;;12.14;100.00
55263;BME280;41125;48.752;9.168;2023-05-10T00:39:05;96272.69;;;12.12;100.00
55263;BME280;41125;48.752;9.168;2023-05-10T00:39:37;96278.12;;;12.12;100.00
55263;BME280;41125;48.752;9.168;2023-05-10T00:40:09;96277.31;;;12.20;100.00
55263;BME280;41125;48.752;9.168;2023-05-10T00:40:40;96274.59;;;12.20;100.00
55263;BME280;41125;48.752;9.168;2023-05-10T00:41:13;96270.41;;;12.14;100.00
55263;BME280;41125;48.752;9.168;2023-05-10T00:41:44;96276.53;;;12.11;100.00
55263;BME280;41125;48.752;9.168;2023-05-10T00:42:16;96276.66;;;12.14;100.00
55263;BME280;41125;48.752;9.168;2023-05-10T00:42:47;96278.12;;;12.12;100.00
55263;BME280;41125;48.752;9.168;2023-05-10T00:43:18;96275.72;;;12.10;100.00
55263;BME280;41125;48.752;9.168;2023-05-10T00:43:49;96271.09;;;12.11;100.00
55263;BME280;41125;48.752;9.168;2023-05-10T00:44:21;96274.91;;;12.10;100.00
55263;BME280;41125;48.752;9.168;2023-05-10T00:44:52;96272.03;;;12.06;100.00
55263;BME280;41125;48.752;9.168;2023-05-10T00:45:23;96281.63;;;12.03;100.00
55263;BME280;41125;48.752;9.168;2023-05-10T00:45:55;96281.44;;;12.00;100.00
55263;BME280;41125;48.752;9.168;2023-05-10T00:46:26;96270.72;;;11.95;100.00
55263;BME280;41125;48.752;9.168;2023-05-10T00:46:59;96277.59;;;11.92;100.00
55263;BME280;41125;48.752;9.168;2023-05-10T00:47:31;96282.53;;;11.90;100.00
55263;BME280;41125;48.752;9.168;2023-05-10T00:48:03;96273.91;;;11.88;100.00
55263;BME280;41125;48.752;9.168;2023-05-10T00:48:35;96273.91;;;11.88;100.00
55263;BME280;41125;48.752;9.168;2023-05-10T00:49:07;96276.47;;;11.93;100.00
55263;BME280;41125;48.752;9.168;2023-05-10T00:49:39;96280.66;;;11.99;100.00
55263;BME280;41125;48.752;9.168;2023-05-10T00:50:11;96280.66;;;11.99;100.00
55263;BME280;41125;48.752;9.168;2023-05-10T00:50:42;96281.44;;;12.00;100.00
55263;BME280;41125;48.752;9.168;2023-05-10T00:51:14;96281.28;;;11.96;100.00
55263;BME280;41125;48.752;9.168;2023-05-10T00:51:45;96279.19;;;11.93;100.00
55263;BME280;41125;48.752;9.168;2023-05-10T00:52:17;96278.69;;;11.91;100.00
55263;BME280;41125;48.752;9.168;2023-05-10T00:52:48;96287.03;;;11.95;100.00
55263;BME280;41125;48.752;9.168;2023-05-10T00:53:21;96278.06;;;11.94;100.00
55263;BME280;41125;48.752;9.168;2023-05-10T00:53:53;96282.44;;;12.04;100.00
55263;BME280;41125;48.752;9.168;2023-05-10T00:54:25;96281.00;;;12.06;100.00
55263;BME280;41125;48.752;9.168;2023-05-10T00:54:56;96285.31;;;12.07;100.00
55263;BME280;41125;48.752;9.168;2023-05-10T00:55:28;96284.19;;;12.08;100.00
55263;BME280;41125;48.752;9.168;2023-05-10T00:56:01;96287.09;;;12.12;100.00
55263;BME280;41125;48.752;9.168;2023-05-10T00:56:34;96293.78;;;12.15;100.00
55263;BME280;41125;48.752;9.168;2023-05-10T00:57:05;96290.75;;;12.16;100.00
55263;BME280;41125;48.752;9.168;2023-05-10T00:57:36;96279.72;;;12.13;100.00
55263;BME280;41125;48.752;9.168;2023-05-10T00:58:07;96289.63;;;12.08;100.00
55263;BME280;41125;48.752;9.168;2023-05-10T00:58:40;96286.56;;;12.01;100.00
55263;BME280;41125;48.752;9.168;2023-05-10T00:59:11;96294.38;;;11.94;100.00
55263;BME280;41125;48.752;9.168;2023-05-10T00:59:42;96285.25;;;11.90;100.00
55263;BME280;41125;48.752;9.168;2023-05-10T01:00:15;96292.44;;;11.86;100.00
55263;BME280;41125;48.752;9.168;2023-05-10T01:00:50;96295.00;;;11.91;100.00
55263;BME280;41125;48.752;9.168;2023-05-10T01:01:23;96287.00;;;11.86;100.00
55263;BME280;41125;48.752;9.168;2023-05-10T01:01:54;96286.19;;;11.86;100.00
55263;BME280;41125;48.752;9.168;2023-05-10T01:02:25;96291.94;;;11.84;100.00
55263;BME280;41125;48.752;9.168;2023-05-10T01:03:01;96287.16;;;11.81;100.00
55263;BME280;41125;48.752;9.168;2023-05-10T01:03:33;96292.72;;;11.76;100.00
55263;BME280;41125;48.752;9.168;2023-05-10T01:04:04;96294.66;;;11.84;100.00
55263;BME280;41125;48.752;9.168;2023-05-10T01:04:36;96290.84;;;11.85;100.00
55263;BME280;41125;48.752;9.168;2023-05-10T01:05:08;96294.97;;;11.83;100.00
55263;BME280;41125;48.752;9.168;2023-05-10T01:05:41;96294.19;;;11.82;100.00
55263;BME280;41125;48.752;9.168;2023-05-10T01:06:13;96285.09;;;11.78;100.00
55263;BME280;41125;48.752;9.168;2023-05-10T01:06:45;96294.94;;;11.74;100.00
55263;BME280;41125;48.752;9.168;2023-05-10T01:07:16;96290.94;;;11.71;100.00
55263;BME280;41125;48.752;9.168;2023-05-10T01:07:48;96294.94;;;11.74;100.00
55263;BME280;41125;48.752;9.168;2023-05-10T01:08:22;96296.87;;;11.73;100.00
55263;BME280;41125;48.752;9.168;2023-05-10T01:08:54;96298.78;;;11.73;100.00
55263;BME280;41125;48.752;9.168;2023-05-10T01:09:27;96294.50;;;11.81;100.00
55263;BME280;41125;48.752;9.168;2023-05-10T01:09:58;96296.91;;;11.82;100.00
55263;BME280;41125;48.752;9.168;2023-05-10T01:10:31;96293.69;;;11.80;100.00
55263;BME280;41125;48.752;9.168;2023-05-10T01:11:02;96297.88;;;11.78;100.00
55263;BME280;41125;48.752;9.168;2023-05-10T01:11:35;96294.94;;;11.74;100.00
55263;BME280;41125;48.752;9.168;2023-05-10T01:12:07;96299.72;;;11.68;100.00
55263;BME280;41125;48.752;9.168;2023-05-10T01:12:40;96298.59;;;11.69;100.00
55263;BME280;41125;48.752;9.168;2023-05-10T01:13:13;96301.00;;;11.71;100.00
55263;BME280;41125;48.752;9.168;2023-05-10T01:13:52;96296.69;;;11.70;100.00
55263;BME280;41125;48.752;9.168;2023-05-10T01:14:27;96299.13;;;11.80;100.00
55263;BME280;41125;48.752;9.168;2023-05-10T01:15:00;96297.53;;;11.79;100.00
55263;BME280;41125;48.752;9.168;2023-05-10T01:15:34;96301.38;;;11.78;100.00
55263;BME280;41125;48.752;9.168;2023-05-10T01:16:07;96301.22;;;11.83;100.00
55263;BME280;41125;48.752;9.168;2023-05-10T01:16:40;96294.81;;;11.79;100.00
55263;BME280;41125;48.752;9.168;2023-05-10T01:17:12;96292.44;;;11.86;100.00
55263;BME280;41125;48.752;9.168;2023-05-10T01:17:46;96292.25;;;11.83;100.00
55263;BME280;41125;48.752;9.168;2023-05-10T01:18:20;96299.00;;;11.77;100.00
55263;BME280;41125;48.752;9.168;2023-05-10T01:18:53;96299.41;;;11.70;100.00
55263;BME280;41125;48.752;9.168;2023-05-10T01:19:26;96294.59;;;11.67;100.00
55263;BME280;41125;48.752;9.168;2023-05-10T01:19:59;96299.59;;;11.73;100.00
55263;BME280;41125;48.752;9.168;2023-05-10T01:20:35;96300.25;;;11.79;100.00
55263;BME280;41125;48.752;9.168;2023-05-10T01:21:50;96295.75;;;11.74;100.00
55263;BME280;41125;48.752;9.168;2023-05-10T01:25:37;96295.03;;;11.60;100.00
55263;BME280;41125;48.752;9.168;2023-05-10T01:26:57;96302.53;;;11.55;100.00
55263;BME280;41125;48.752;9.168;2023-05-10T01:29:41;96314.19;;;11.55;100.00
55263;BME280;41125;48.752;9.168;2023-05-10T01:33:39;96315.62;;;11.53;100.00
55263;BME280;41125;48.752;9.168;2023-05-10T01:34:16;96317.84;;;11.51;100.00
55263;BME280;41125;48.752;9.168;2023-05-10T01:35:22;96329.34;;;11.48;100.00
55263;BME280;41125;48.752;9.168;2023-05-10T01:36:28;96324.88;;;11.43;100.00
55263;BME280;41125;48.752;9.168;2023-05-10T01:37:08;96325.16;;;11.41;100.00
55263;BME280;41125;48.752;9.168;2023-05-10T01:37:57;96325.16;;;11.41;100.00
55263;BME280;41125;48.752;9.168;2023-05-10T01:39:46;96325.78;;;11.38;100.00
55263;BME280;41125;48.752;9.168;2023-05-10T01:40:35;96311.72;;;11.36;100.00
55263;BME280;41125;48.752;9.168;2023-05-10T01:42:26;96328.81;;;11.37;100.00
55263;BME280;41125;48.752;9.168;2023-05-10T01:43:05;96321.78;;;11.36;100.00
55263;BME280;41125;48.752;9.168;2023-05-10T01:45:07;96321.59;;;11.32;100.00
55263;BME280;41125;48.752;9.168;2023-05-10T01:45:55;96323.81;;;11.30;100.00
55263;BME280;41125;48.752;9.168;2023-05-10T01:46:37;96328.47;;;11.30;100.00
55263;BME280;41125;48.752;9.168;2023-05-10T01:47:11;96327.66;;;11.29;100.00
55263;BME280;41125;48.752;9.168;2023-05-10T01:47:46;96322.22;;;11.29;100.00
55263;BME280;41125;48.752;9.168;2023-05-10T01:48:20;96334.19;;;11.28;100.00
55263;BME280;41125;48.752;9.168;2023-05-10T01:48:55;96326.66;;;11.25;100.00
55263;BME280;41125;48.752;9.168;2023-05-10T01:49:34;96327.78;;;11.24;100.00
55263;BME280;41125;48.752;9.168;2023-05-10T01:50:15;96334.81;;;11.25;100.00
55263;BME280;41125;48.752;9.168;2023-05-10T01:50:48;96329.06;;;11.27;100.00
55263;BME280;41125;48.752;9.168;2023-05-10T01:51:23;96331.78;;;11.27;100.00
55263;BME280;41125;48.752;9.168;2023-05-10T01:52:04;96338.34;;;11.26;100.00
55263;BME280;41125;48.752;9.168;2023-05-10T01:52:42;96329.38;;;11.25;100.00
55263;BME280;41125;48.752;9.168;2023-05-10T01:53:18;96334.81;;;11.25;100.00
55263;BME280;41125;48.752;9.168;2023-05-10T01:53:53;96335.94;;;11.24;100.00
55263;BME280;41125;48.752;9.168;2023-05-10T01:54:28;96333.53;;;11.23;100.00
55263;BME280;41125;48.752;9.168;2023-05-10T01:55:07;96333.81;;;11.21;100.00
55263;BME280;41125;48.752;9.168;2023-05-10T01:55:47;96338.16;;;11.22;100.00
55263;BME280;41125;48.752;9.168;2023-05-10T01:56:20;96342.97;;;11.25;100.00
55263;BME280;41125;48.752;9.168;2023-05-10T01:57:06;96337.53;;;11.25;100.00
55263;BME280;41125;48.752;9.168;2023-05-10T01:57:40;96329.69;;;11.24;100.00
55263;BME280;41125;48.752;9.168;2023-05-10T01:58:17;96337.03;;;11.23;100.00
55263;BME280;41125;48.752;9.168;2023-05-10T01:58:53;96335.44;;;11.22;100.00
55263;BME280;41125;48.752;9.168;2023-05-10T01:59:30;96338.16;;;11.22;100.00
55263;BME280;41125;48.752;9.168;2023-05-10T02:00:08;96333.34;;;11.19;100.00
55263;BME280;41125;48.752;9.168;2023-05-10T02:00:43;96338.75;;;11.19;100.00
55263;BME280;41125;48.752;9.168;2023-05-10T02:01:16;96332.84;;;11.17;100.00
55263;BME280;41125;48.752;9.168;2023-05-10T02:01:53;96337.16;;;11.18;100.00
55263;BME280;41125;48.752;9.168;2023-05-10T02:02:25;96340.97;;;11.17;100.00
55263;BME280;41125;48.752;9.168;2023-05-10T02:03:00;96339.38;;;11.16;100.00
55263;BME280;41125;48.752;9.168;2023-05-10T02:03:35;96344.81;;;11.16;100.00
55263;BME280;41125;48.752;9.168;2023-05-10T02:04:10;96348.63;;;11.15;100.00
55263;BME280;41125;48.752;9.168;2023-05-10T02:04:45;96344.81;;;11.16;100.00
55263;BME280;41125;48.752;9.168;2023-05-10T02:05:18;96346.72;;;11.16;100.00
55263;BME280;41125;48.752;9.168;2023-05-10T02:05:50;96351.03;;;11.17;100.00
55263;BME280;41125;48.752;9.168;2023-05-10T02:06:24;96345.62;;;11.17;100.00
55263;BME280;41125;48.752;9.168;2023-05-10T02:06:57;96346.41;;;11.17;100.00
55263;BME280;41125;48.752;9.168;2023-05-10T02:07:29;96344.00;;;11.16;100.00
55263;BME280;41125;48.752;9.168;2023-05-10T02:08:05;96344.81;;;11.16;100.00
55263;BME280;41125;48.752;9.168;2023-05-10T02:08:38;96350.25;;;11.16;100.00
55263;BME280;41125;48.752;9.168;2023-05-10T02:09:11;96343.22;;;11.15;100.00
55263;BME280;41125;48.752;9.168;2023-05-10T02:09:44;96340.81;;;11.14;100.00
55263;BME280;41125;48.752;9.168;2023-05-10T02:10:19;96344.63;;;11.13;100.00
55263;BME280;41125;48.752;9.168;2023-05-10T02:10:54;96342.22;;;11.11;100.00
55263;BME280;41125;48.752;9.168;2023-05-10T02:11:27;96346.53;;;11.12;100.00
55263;BME280;41125;48.752;9.168;2023-05-10T02:12:01;96340.31;;;11.12;100.00
55263;BME280;41125;48.752;9.168;2023-05-10T02:12:42;96348.44;;;11.12;100.00
55263;BME280;41125;48.752;9.168;2023-05-10T02:13:15;96346.84;;;11.11;100.00
55263;BME280;41125;48.752;9.168;2023-05-10T02:13:49;96338.69;;;11.11;100.00
55263;BME280;41125;48.752;9.168;2023-05-10T02:14:22;96338.41;;;11.12;100.00
55263;BME280;41125;48.752;9.168;2023-05-10T02:14:55;96345.44;;;11.13;100.00
55263;BME280;41125;48.752;9.168;2023-05-10T02:15:28;96341.59;;;11.14;100.00
55263;BME280;41125;48.752;9.168;2023-05-10T02:16:01;96342.09;;;11.16;100.00
55263;BME280;41125;48.752;9.168;2023-05-10T02:16:35;96341.59;;;11.14;100.00
55263;BME280;41125;48.752;9.168;2023-05-10T02:17:08;96343.22;;;11.15;100.00
55263;BME280;41125;48.752;9.168;2023-05-10T02:17:42;96336.16;;;11.14;100.00
55263;BME280;41125;48.752;9.168;2023-05-10T02:18:14;96339.19;;;11.13;100.00
55263;BME280;41125;48.752;9.168;2023-05-10T02:18:47;96335.97;;;11.11;100.00
55263;BME280;41125;48.752;9.168;2023-05-10T02:19:19;96344.94;;;11.11;100.00
55263;BME280;41125;48.752;9.168;2023-05-10T02:19:52;96341.09;;;11.12;100.00
55263;BME280;41125;48.752;9.168;2023-05-10T02:20:25;96342.41;;;11.15;100.00
55263;BME280;41125;48.752;9.168;2023-05-10T02:20:58;96350.25;;;11.16;100.00
55263;BME280;41125;48.752;9.168;2023-05-10T02:21:30;96341.59;;;11.14;100.00
55263;BME280;41125;48.752;9.168;2023-05-10T02:22:04;96347.03;;;11.14;100.00
55263;BME280;41125;48.752;9.168;2023-05-10T02:22:36;96341.09;;;11.12;100.00
55263;BME280;41125;48.752;9.168;2023-05-10T02:23:10;96344.94;;;11.11;100.00
55263;BME280;41125;48.752;9.168;2023-05-10T02:23:43;96348.75;;;11.10;100.00
55263;BME280;41125;48.752;9.168;2023-05-10T02:24:16;96351.97;;;11.12;100.00
55263;BME280;41125;48.752;9.168;2023-05-10T02:24:50;96348.03;;;11.18;100.00
55263;BME280;41125;48.752;9.168;2023-05-10T02:25:23;96350.75;;;11.18;100.00
55263;BME280;41125;48.752;9.168;2023-05-10T02:25:56;96349.63;;;11.19;100.00
55263;BME280;41125;48.752;9.168;2023-05-10T02:26:29;96349.63;;;11.19;100.00
55263;BME280;41125;48.752;9.168;2023-05-10T02:27:03;96356.97;;;11.19;100.00
55263;BME280;41125;48.752;9.168;2023-05-10T02:27:37;96352.66;;;11.18;100.00
55263;BME280;41125;48.752;9.168;2023-05-10T02:28:10;96350.25;;;11.16;100.00
55263;BME280;41125;48.752;9.168;2023-05-10T02:28:43;96355.66;;;11.16;100.00
55263;BME280;41125;48.752;9.168;2023-05-10T02:29:15;96354.88;;;11.16;100.00
55263;BME280;41125;48.752;9.168;2023-05-10T02:29:49;96357.28;;;11.17;100.00
55263;BME280;41125;48.752;9.168;2023-05-10T02:30:23;96356.47;;;11.17;100.00
55263;BME280;41125;48.752;9.168;2023-05-10T02:30:55;96362.72;;;11.17;100.00
55263;BME280;41125;48.752;9.168;2023-05-10T02:31:27;96355.66;;;11.16;100.00
55263;BME280;41125;48.752;9.168;2023-05-10T02:31:59;96362.53;;;11.14;100.00
55263;BME280;41125;48.752;9.168;2023-05-10T02:32:31;96362.81;;;11.12;100.00
55263;BME280;41125;48.752;9.168;2023-05-10T02:33:04;96368.25;;;11.12;100.00
55263;BME280;41125;48.752;9.168;2023-05-10T02:33:38;96370.97;;;11.12;100.00
55263;BME280;41125;48.752;9.168;2023-05-10T02:34:11;96367.16;;;11.13;100.00
55263;BME280;41125;48.752;9.168;2023-05-10T02:34:45;96365.53;;;11.12;100.00
55263;BME280;41125;48.752;9.168;2023-05-10T02:35:23;96366.66;;;11.11;100.00
55263;BME280;41125;48.752;9.168;2023-05-10T02:35:56;96366.66;;;11.11;100.00
55263;BME280;41125;48.752;9.168;2023-05-10T02:36:29;96360.72;;;11.09;100.00
55263;BME280;41125;48.752;9.168;2023-05-10T02:37:02;96363.44;;;11.09;100.00
55263;BME280;41125;48.752;9.168;2023-05-10T02:37:34;96373.19;;;11.10;100.00
55263;BME280;41125;48.752;9.168;2023-05-10T02:38:07;96367.75;;;11.10;100.00
55263;BME280;41125;48.752;9.168;2023-05-10T02:38:40;96367.75;;;11.10;100.00
55263;BME280;41125;48.752;9.168;2023-05-10T02:39:13;96367.75;;;11.10;100.00
55263;BME280;41125;48.752;9.168;2023-05-10T02:39:49;96363.94;;;11.11;100.00
55263;BME280;41125;48.752;9.168;2023-05-10T02:40:23;96369.38;;;11.11;100.00
55263;BME280;41125;48.752;9.168;2023-05-10T02:40:55;96365.84;;;11.11;100.00
55263;BME280;41125;48.752;9.168;2023-05-10T02:41:28;96369.38;;;11.11;100.00
55263;BME280;41125;48.752;9.168;2023-05-10T02:42:02;96372.59;;;11.13;100.00
55263;BME280;41125;48.752;9.168;2023-05-10T02:42:36;96366.34;;;11.13;100.00
55263;BME280;41125;48.752;9.168;2023-05-10T02:43:12;96370.97;;;11.12;100.00
55263;BME280;41125;48.752;9.168;2023-05-10T02:43:44;96373.69;;;11.12;100.00
55263;BME280;41125;48.752;9.168;2023-05-10T02:44:20;96367.47;;;11.12;100.00
55263;BME280;41125;48.752;9.168;2023-05-10T02:45:00;96372.09;;;11.11;100.00
55263;BME280;41125;48.752;9.168;2023-05-10T02:45:33;96368.56;;;11.11;100.00
55263;BME280;41125;48.752;9.168;2023-05-10T02:46:06;96368.25;;;11.12;100.00
55263;BME280;41125;48.752;9.168;2023-05-10T02:46:38;96378.00;;;11.13;100.00
55263;BME280;41125;48.752;9.168;2023-05-10T02:47:09;96367.16;;;11.13;100.00
55263;BME280;41125;48.752;9.168;2023-05-10T02:47:41;96373.69;;;11.12;100.00
55263;BME280;41125;48.752;9.168;2023-05-10T02:48:13;96369.38;;;11.11;100.00
55263;BME280;41125;48.752;9.168;2023-05-10T02:48:44;96370.97;;;11.12;100.00
55263;BME280;41125;48.752;9.168;2023-05-10T02:49:18;96365.53;;;11.12;100.00
55263;BME280;41125;48.752;9.168;2023-05-10T02:49:49;96378.00;;;11.13;100.00
55263;BME280;41125;48.752;9.168;2023-05-10T02:50:22;96370.66;;;11.14;100.00
55263;BME280;41125;48.752;9.168;2023-05-10T02:50:56;96372.28;;;11.15;100.00
55263;BME280;41125;48.752;9.168;2023-05-10T02:51:31;96366.53;;;11.16;100.00
55263;BME280;41125;48.752;9.168;2023-05-10T02:52:05;96373.06;;;11.15;100.00
55263;BME280;41125;48.752;9.168;2023-05-10T02:52:47;96369.06;;;11.13;100.00
55263;BME280;41125;48.752;9.168;2023-05-10T02:53:23;96372.59;;;11.13;100.00
55263;BME280;41125;48.752;9.168;2023-05-10T02:54:04;96372.75;;;11.17;100.00
55263;BME280;41125;48.752;9.168;2023-05-10T02:54:43;96369.25;;;11.16;100.00
55263;BME280;41125;48.752;9.168;2023-05-10T02:55:16;96376.28;;;11.17;100.00
55263;BME280;41125;48.752;9.168;2023-05-10T02:55:52;96370.34;;;11.15;100.00
55263;BME280;41125;48.752;9.168;2023-05-10T02:56:33;96372.28;;;11.15;100.00
55263;BME280;41125;48.752;9.168;2023-05-10T02:57:06;96375.00;;;11.15;100.00
55263;BME280;41125;48.752;9.168;2023-05-10T02:58:32;96370.66;;;11.14;100.00
55263;BME280;41125;48.752;9.168;2023-05-10T02:59:03;96371.78;;;11.13;100.00
55263;BME280;41125;48.752;9.168;2023-05-10T02:59:34;96374.50;;;11.13;100.00
55263;BME280;41125;48.752;9.168;2023-05-10T03:00:07;96372.09;;;11.11;100.00
55263;BME280;41125;48.752;9.168;2023-05-10T03:00:38;96367.75;;;11.10;100.00
55263;BME280;41125;48.752;9.168;2023-05-10T03:01:09;96374.81;;;11.11;100.00
55263;BME280;41125;48.752;9.168;2023-05-10T03:01:41;96372.09;;;11.11;100.00
55263;BME280;41125;48.752;9.168;2023-05-10T03:02:13;96369.06;;;11.13;100.00
55263;BME280;41125;48.752;9.168;2023-05-10T03:02:44;96375.28;;;11.13;100.00
55263;BME280;41125;48.752;9.168;2023-05-10T03:03:16;96370.97;;;11.12;100.00
55263;BME280;41125;48.752;9.168;2023-05-10T03:03:48;96369.69;;;11.09;100.00
55263;BME280;41125;48.752;9.168;2023-05-10T03:04:20;96367.31;;;11.08;100.00
55263;BME280;41125;48.752;9.168;2023-05-10T03:04:51;96369.38;;;11.11;100.00
55263;BME280;41125;48.752;9.168;2023-05-10T03:05:23;96373.37;;;11.14;100.00
55263;BME280;41125;48.752;9.168;2023-05-10T03:05:54;96365.22;;;11.14;100.00
55263;BME280;41125;48.752;9.168;2023-05-10T03:06:26;96363.31;;;11.14;100.00
55263;BME280;41125;48.752;9.168;2023-05-10T03:07:01;96370.34;;;11.15;100.00
55263;BME280;41125;48.752;9.168;2023-05-10T03:07:33;96366.53;;;11.16;100.00
55263;BME280;41125;48.752;9.168;2023-05-10T03:08:05;96371.97;;;11.16;100.00
55263;BME280;41125;48.752;9.168;2023-05-10T03:08:37;96368.13;;;11.17;100.00
55263;BME280;41125;48.752;9.168;2023-05-10T03:09:09;96362.72;;;11.17;100.00
55263;BME280;41125;48.752;9.168;2023-05-10T03:09:43;96374.88;;;11.20;100.00
55263;BME280;41125;48.752;9.168;2023-05-10T03:10:14;96366.28;;;11.26;100.00